Time;durP1;ratioP1;P1;durP2;ratioP2;P2;SDS_P1;SDS_P2;PMS_P1;PMS_P2;Temp;Humidity;BMP_temperature;BMP_pressure;BME280_temperature;BME280_humidity;BME280_pressure;Samples;Min_cycle;Max_cycle;Signal;HPM_P1;HPM_P2
2024/01/10 00:01:31;;;;;;;14.63;10.05;;;-3.10;27.50;;;;;;5074453;28;20378;-73
2024/01/10 00:03:57;;;;;;;17.73;10.85;;;-3.20;27.70;;;;;;5092975;28;20499;-72
2024/01/10 00:06:23;;;;;;;16.70;10.93;;;-3.20;27.70;;;;;;5094901;28;20394;-73
2024/01/10 00:08:49;;;;;;;16.65;10.40;;;-3.20;27.40;;;;;;5076280;28;20465;-71
2024/01/10 00:11:15;;;;;;;17.73;10.35;;;-3.20;27.50;;;;;;5092736;28;20393;-72
2024/01/10 00:13:41;;;;;;;16.30;10.30;;;-3.20;27.70;;;;;;5094794;28;20378;-72
2024/01/10 00:16:06;;;;;;;15.95;10.30;;;-3.10;27.80;;;;;;5095052;28;20398;-75
2024/01/10 00:18:33;;;;;;;16.13;10.63;;;-3.10;27.80;;;;;;5095670;28;20394;-72
2024/01/10 00:20:58;;;;;;;16.65;10.73;;;-3.20;27.60;;;;;;5091826;28;20455;-73
2024/01/10 00:23:24;;;;;;;15.80;10.27;;;-3.20;28.00;;;;;;5092823;28;20378;-74
2024/01/10 00:25:49;;;;;;;16.77;10.97;;;-3.20;28.00;;;;;;5094644;28;20949;-73
2024/01/10 00:28:17;;;;;;;16.33;10.27;;;-3.30;28.20;;;;;;5095610;28;20386;-74
2024/01/10 00:30:48;;;;;;;18.77;10.73;;;-3.20;27.80;;;;;;5095566;28;20443;-73
2024/01/10 00:33:14;;;;;;;15.38;10.25;;;-3.20;27.70;;;;;;5096270;28;20465;-73
2024/01/10 00:35:39;;;;;;;17.67;10.50;;;-3.30;27.70;;;;;;5095145;28;20752;-71
2024/01/10 00:38:05;;;;;;;15.77;10.93;;;-3.20;27.70;;;;;;5095959;28;20378;-74
2024/01/10 00:40:31;;;;;;;17.13;10.52;;;-3.30;27.70;;;;;;5096212;28;20402;-72
2024/01/10 00:42:56;;;;;;;15.43;10.60;;;-3.30;27.70;;;;;;5095018;28;20791;-73
2024/01/10 00:45:22;;;;;;;17.92;10.70;;;-3.20;27.50;;;;;;5095309;28;20385;-73
2024/01/10 00:47:51;;;;;;;15.73;9.90;;;-3.30;27.60;;;;;;5091065;28;20386;-72
2024/01/10 00:50:16;;;;;;;14.57;10.38;;;-3.30;27.30;;;;;;5092094;28;20409;-75
2024/01/10 00:52:44;;;;;;;17.77;10.93;;;-3.40;27.40;;;;;;5091681;28;20378;-74
2024/01/10 00:55:09;;;;;;;15.77;11.05;;;-3.30;27.50;;;;;;5091707;28;20494;-73
2024/01/10 00:57:35;;;;;;;18.13;11.07;;;-3.30;27.40;;;;;;5092008;28;20390;-75
2024/01/10 01:00:00;;;;;;;15.68;10.10;;;-3.40;27.90;;;;;;5091992;28;20385;-72
2024/01/10 01:02:26;;;;;;;17.67;10.60;;;-3.30;27.30;;;;;;5090594;28;20400;-72
2024/01/10 01:04:52;;;;;;;15.90;10.20;;;-3.20;27.30;;;;;;5091844;28;20390;-73
2024/01/10 01:07:17;;;;;;;16.48;10.70;;;-3.20;27.00;;;;;;5091695;28;20731;-72
2024/01/10 01:09:43;;;;;;;17.95;10.55;;;-3.20;27.00;;;;;;5090144;28;20857;-72
2024/01/10 01:12:08;;;;;;;16.40;10.87;;;-3.30;26.80;;;;;;5091298;28;20911;-73
2024/01/10 01:14:34;;;;;;;17.57;10.10;;;-3.40;27.20;;;;;;5091623;28;20864;-73
2024/01/10 01:16:59;;;;;;;17.45;10.48;;;-3.30;27.00;;;;;;5091490;28;20389;-71
2024/01/10 01:19:25;;;;;;;15.50;10.53;;;-3.30;27.10;;;;;;5091196;28;20878;-73
2024/01/10 01:21:51;;;;;;;16.37;10.03;;;-3.50;27.40;;;;;;5091355;28;20430;-73
2024/01/10 01:24:16;;;;;;;15.80;10.45;;;-3.50;27.50;;;;;;5091159;28;20401;-72
2024/01/10 01:26:42;;;;;;;15.33;9.80;;;-3.50;27.50;;;;;;5091250;28;20381;-72
2024/01/10 01:29:08;;;;;;;14.83;9.70;;;-3.50;27.60;;;;;;5091018;28;20464;-72
2024/01/10 01:31:34;;;;;;;17.53;10.00;;;-3.50;27.40;;;;;;5073072;28;20386;-72
2024/01/10 01:33:59;;;;;;;19.40;9.73;;;-3.50;27.80;;;;;;5090963;28;20484;-73
2024/01/10 01:36:25;;;;;;;15.50;9.97;;;-3.30;27.30;;;;;;5091088;28;20911;-72
2024/01/10 01:38:50;;;;;;;17.40;10.30;;;-3.10;26.80;;;;;;5090953;28;20405;-71
2024/01/10 01:41:17;;;;;;;15.30;10.40;;;-3.10;26.50;;;;;;5091227;28;20829;-72
2024/01/10 01:43:43;;;;;;;15.02;9.80;;;-3.20;26.60;;;;;;5091191;28;20697;-72
2024/01/10 01:46:08;;;;;;;15.90;9.53;;;-3.20;26.30;;;;;;5091507;28;20499;-71
2024/01/10 01:48:35;;;;;;;16.58;10.30;;;-3.20;26.40;;;;;;5092733;28;20393;-74
2024/01/10 01:51:05;;;;;;;16.27;10.03;;;-3.20;26.60;;;;;;5094376;28;20414;-71
2024/01/10 01:53:31;;;;;;;14.47;10.10;;;-3.30;26.80;;;;;;5074440;28;20378;-72
2024/01/10 01:55:59;;;;;;;15.55;10.43;;;-3.30;27.00;;;;;;5093379;28;20390;-73
2024/01/10 01:58:25;;;;;;;17.42;10.57;;;-3.40;27.10;;;;;;5095049;28;20425;-72
2024/01/10 02:00:52;;;;;;;16.55;10.68;;;-3.40;27.30;;;;;;5095465;28;20405;-72
2024/01/10 02:03:18;;;;;;;16.38;10.50;;;-3.40;27.50;;;;;;5095305;28;20378;-73
2024/01/10 02:05:43;;;;;;;15.07;9.80;;;-3.30;27.10;;;;;;5097460;28;20385;-72
2024/01/10 02:08:09;;;;;;;15.00;9.57;;;-3.40;27.20;;;;;;5097100;28;20447;-71
2024/01/10 02:10:35;;;;;;;15.45;9.80;;;-3.40;27.20;;;;;;5094777;28;20386;-72
2024/01/10 02:13:01;;;;;;;15.55;9.80;;;-3.40;26.70;;;;;;5095304;28;20417;-72
2024/01/10 02:15:27;;;;;;;16.15;9.57;;;-3.30;26.90;;;;;;5094419;28;20409;-71
2024/01/10 02:17:52;;;;;;;15.00;9.77;;;-3.30;27.10;;;;;;5095024;28;20386;-72
2024/01/10 02:20:18;;;;;;;14.57;10.02;;;-3.30;27.00;;;;;;5114639;22;20519;-76
2024/01/10 02:22:44;;;;;;;13.20;9.60;;;-3.20;26.70;;;;;;5114473;28;20377;-75
2024/01/10 02:25:11;;;;;;;12.30;8.90;;;-3.20;26.50;;;;;;5114597;28;20437;-75
2024/01/10 02:27:37;;;;;;;17.05;10.10;;;-3.30;26.70;;;;;;5115165;28;20376;-75
2024/01/10 02:30:04;;;;;;;12.70;8.77;;;-3.30;26.80;;;;;;5115275;28;20368;-75
2024/01/10 02:32:29;;;;;;;16.03;10.03;;;-3.20;26.20;;;;;;5115045;28;20463;-75
2024/01/10 02:34:55;;;;;;;16.00;10.50;;;-3.20;26.10;;;;;;5095913;28;20400;-75
2024/01/10 02:37:21;;;;;;;16.47;9.77;;;-3.20;26.00;;;;;;5113982;28;20384;-74
2024/01/10 02:39:46;;;;;;;15.73;9.70;;;-3.10;26.00;;;;;;5114160;28;20380;-75
2024/01/10 02:42:12;;;;;;;15.48;9.75;;;-3.10;25.70;;;;;;5113861;28;20404;-75
2024/01/10 02:44:37;;;;;;;13.87;9.60;;;-3.20;25.50;;;;;;5118307;28;20425;-75
2024/01/10 02:47:03;;;;;;;13.93;9.60;;;-3.30;25.70;;;;;;5114758;28;20379;-74
2024/01/10 02:49:29;;;;;;;15.93;10.00;;;-3.20;25.60;;;;;;5114450;28;20411;-76
2024/01/10 02:51:54;;;;;;;17.07;10.27;;;-3.20;25.60;;;;;;5114420;28;20391;-76
2024/01/10 02:54:20;;;;;;;15.80;10.18;;;-3.20;25.20;;;;;;5114040;28;20380;-74
2024/01/10 02:56:45;;;;;;;15.17;9.13;;;-3.20;25.00;;;;;;5096193;28;20868;-75
2024/01/10 02:59:11;;;;;;;16.03;10.50;;;-3.20;24.90;;;;;;5114164;28;20441;-76
2024/01/10 03:01:37;;;;;;;14.40;10.00;;;-3.20;25.10;;;;;;5114690;28;20429;-75
2024/01/10 03:04:03;;;;;;;15.07;9.27;;;-3.20;25.30;;;;;;5114377;28;20421;-75
2024/01/10 03:06:28;;;;;;;15.60;9.90;;;-3.30;25.50;;;;;;5114036;28;20416;-76
2024/01/10 03:08:55;;;;;;;16.10;9.77;;;-3.20;25.30;;;;;;5094267;28;20392;-75
2024/01/10 03:11:21;;;;;;;16.25;9.90;;;-3.30;25.20;;;;;;5113466;28;20878;-76
2024/01/10 03:13:47;;;;;;;15.83;10.10;;;-3.30;25.40;;;;;;5113395;28;20392;-75
2024/01/10 03:16:13;;;;;;;16.67;10.10;;;-3.30;25.40;;;;;;5113356;28;20400;-75
2024/01/10 03:18:39;;;;;;;14.97;9.90;;;-3.30;25.30;;;;;;5113615;28;20384;-75
2024/01/10 03:21:05;;;;;;;15.73;9.68;;;-3.40;25.60;;;;;;5113186;28;20392;-75
2024/01/10 03:23:31;;;;;;;16.70;10.77;;;-3.50;26.10;;;;;;5113326;28;20376;-76
2024/01/10 03:25:57;;;;;;;15.02;10.23;;;-3.40;25.90;;;;;;5113664;28;20385;-75
2024/01/10 03:28:23;;;;;;;17.80;10.60;;;-3.50;26.00;;;;;;5095013;28;20917;-75
2024/01/10 03:30:49;;;;;;;16.38;10.15;;;-3.90;27.20;;;;;;5113078;28;20392;-74
2024/01/10 03:33:15;;;;;;;16.73;10.57;;;-4.30;28.50;;;;;;5113327;28;20464;-74
2024/01/10 03:35:41;;;;;;;19.20;11.90;;;-4.30;28.80;;;;;;5112956;28;20549;-76
2024/01/10 03:38:07;;;;;;;17.08;10.60;;;-4.50;29.50;;;;;;5112912;28;20750;-76
2024/01/10 03:40:32;;;;;;;16.17;10.80;;;-3.90;28.30;;;;;;5112738;28;20460;-76
2024/01/10 03:42:58;;;;;;;16.63;11.23;;;-3.80;27.50;;;;;;5112505;28;20742;-77
2024/01/10 03:45:24;;;;;;;18.83;10.02;;;-4.10;27.70;;;;;;5112949;28;20385;-75
2024/01/10 03:47:50;;;;;;;17.30;10.75;;;-4.30;28.90;;;;;;5112556;28;20377;-75
2024/01/10 03:50:20;;;;;;;17.10;10.70;;;-4.50;30.30;;;;;;5112672;28;20745;-75
2024/01/10 03:52:46;;;;;;;17.38;11.30;;;-3.90;28.90;;;;;;5112852;28;20685;-75
2024/01/10 03:55:15;;;;;;;16.43;10.70;;;-3.80;27.80;;;;;;5112501;28;20467;-77
2024/01/10 03:57:42;;;;;;;15.55;10.40;;;-4.00;28.30;;;;;;5112467;28;20442;-75
2024/01/10 04:00:08;;;;;;;15.13;9.90;;;-4.00;28.50;;;;;;5112707;28;20377;-75
2024/01/10 04:02:36;;;;;;;16.20;10.57;;;-3.90;28.10;;;;;;5112206;28;20396;-76
2024/01/10 04:05:02;;;;;;;18.25;11.05;;;-4.30;28.40;;;;;;5112381;28;20395;-75
2024/01/10 04:07:28;;;;;;;15.80;10.07;;;-4.40;29.50;;;;;;5112472;28;20380;-74
2024/01/10 04:09:53;;;;;;;16.08;9.70;;;-4.00;28.40;;;;;;5094186;28;20469;-74
2024/01/10 04:12:19;;;;;;;14.97;9.90;;;-3.70;27.20;;;;;;5112463;28;20388;-77
2024/01/10 04:14:44;;;;;;;17.33;10.60;;;-3.80;27.20;;;;;;5112423;28;20380;-76
2024/01/10 04:17:10;;;;;;;15.53;10.30;;;-3.70;27.40;;;;;;5112627;28;20929;-76
2024/01/10 04:19:36;;;;;;;15.68;10.48;;;-3.80;27.00;;;;;;5111316;28;20893;-75
2024/01/10 04:22:01;;;;;;;15.25;9.95;;;-3.70;27.30;;;;;;5112273;28;20866;-76
2024/01/10 04:24:27;;;;;;;13.80;9.90;;;-3.70;27.30;;;;;;5111919;28;20437;-77
2024/01/10 04:26:52;;;;;;;18.00;11.00;;;-3.90;27.40;;;;;;5112248;28;20395;-75
2024/01/10 04:29:18;;;;;;;16.55;10.10;;;-4.00;27.50;;;;;;5112756;28;20384;-76
2024/01/10 04:31:43;;;;;;;16.97;10.07;;;-4.00;27.90;;;;;;5096103;28;20387;-76
2024/01/10 04:34:09;;;;;;;17.08;10.20;;;-3.80;27.30;;;;;;5114728;28;20383;-76
2024/01/10 04:36:34;;;;;;;16.95;10.35;;;-3.70;27.20;;;;;;5113745;28;20404;-76
2024/01/10 04:39:00;;;;;;;15.93;10.13;;;-3.70;27.60;;;;;;5113042;28;20815;-75
2024/01/10 04:41:26;;;;;;;18.10;10.57;;;-3.70;27.50;;;;;;5106817;28;20750;-75
2024/01/10 04:43:51;;;;;;;21.52;11.38;;;-3.80;27.80;;;;;;5092596;28;20438;-75
2024/01/10 04:46:17;;;;;;;18.30;10.50;;;-3.80;27.80;;;;;;5111678;28;20384;-73
2024/01/10 04:48:43;;;;;;;16.63;10.30;;;-3.90;27.90;;;;;;5106515;28;20413;-74
2024/01/10 04:51:08;;;;;;;17.33;10.57;;;-3.90;28.20;;;;;;5087866;28;20761;-77
2024/01/10 04:53:34;;;;;;;16.80;10.38;;;-3.70;28.20;;;;;;5113284;28;20384;-76
2024/01/10 04:56:00;;;;;;;19.83;10.98;;;-3.80;28.10;;;;;;5114200;28;20402;-73
2024/01/10 04:58:26;;;;;;;16.97;10.27;;;-3.80;27.90;;;;;;5111107;28;20515;-72
2024/01/10 05:00:51;;;;;;;15.25;10.02;;;-3.80;28.10;;;;;;5091247;28;20378;-72
2024/01/10 05:03:17;;;;;;;15.33;10.43;;;-3.80;28.20;;;;;;5092195;28;20714;-73
2024/01/10 05:05:42;;;;;;;15.90;10.48;;;-3.90;28.60;;;;;;5090313;28;20382;-71
2024/01/10 05:08:08;;;;;;;18.30;10.90;;;-3.80;28.20;;;;;;5093473;28;20394;-75
2024/01/10 05:10:33;;;;;;;16.67;10.98;;;-3.80;28.50;;;;;;5092088;28;20453;-76
2024/01/10 05:12:59;;;;;;;16.58;10.60;;;-3.80;28.80;;;;;;5091605;28;20872;-75
2024/01/10 05:15:24;;;;;;;15.60;10.30;;;-3.80;29.30;;;;;;5091478;28;20386;-74
2024/01/10 05:17:50;;;;;;;15.48;10.90;;;-3.80;28.50;;;;;;5090908;28;20514;-74
2024/01/10 05:20:16;;;;;;;16.63;10.50;;;-3.80;28.40;;;;;;5089387;28;20382;-74
2024/01/10 05:22:42;;;;;;;20.30;12.70;;;-3.80;28.50;;;;;;5091236;28;20385;-74
2024/01/10 05:25:08;;;;;;;18.90;12.10;;;-4.10;29.20;;;;;;5094152;28;20392;-75
2024/01/10 05:27:33;;;;;;;20.13;11.20;;;-4.40;30.20;;;;;;5091597;28;20429;-74
2024/01/10 05:29:59;;;;;;;18.45;10.70;;;-4.40;31.00;;;;;;5090688;28;20393;-75
2024/01/10 05:32:26;;;;;;;18.73;11.43;;;-4.30;30.80;;;;;;5090097;28;20386;-74
2024/01/10 05:34:52;;;;;;;19.70;11.40;;;-4.00;30.00;;;;;;5090565;28;20389;-74
2024/01/10 05:37:17;;;;;;;17.48;10.77;;;-3.80;30.00;;;;;;5090812;28;20752;-74
2024/01/10 05:39:43;;;;;;;17.67;11.25;;;-3.70;29.20;;;;;;5091183;28;20381;-73
2024/01/10 05:42:09;;;;;;;19.13;11.65;;;-3.80;28.90;;;;;;5090798;28;20384;-75
2024/01/10 05:44:34;;;;;;;17.33;11.33;;;-4.00;29.20;;;;;;5090755;28;20385;-74
2024/01/10 05:47:00;;;;;;;18.65;11.98;;;-4.20;29.40;;;;;;5090773;28;20464;-75
2024/01/10 05:49:26;;;;;;;17.27;11.10;;;-4.40;30.70;;;;;;5090502;28;20405;-75
2024/01/10 05:51:51;;;;;;;18.45;12.07;;;-4.60;31.20;;;;;;5090644;28;20417;-73
2024/01/10 05:54:18;;;;;;;19.90;11.80;;;-4.50;31.30;;;;;;5090706;28;20401;-74
2024/01/10 05:56:43;;;;;;;23.95;14.30;;;-4.10;30.50;;;;;;5091873;28;20757;-75
2024/01/10 05:59:11;;;;;;;18.80;12.50;;;-4.10;31.00;;;;;;5093226;28;20386;-77
2024/01/10 06:01:38;;;;;;;18.50;11.88;;;-4.20;31.00;;;;;;5091477;28;20402;-75
2024/01/10 06:04:04;;;;;;;19.33;12.48;;;-4.10;30.70;;;;;;5091158;28;20378;-75
2024/01/10 06:06:30;;;;;;;19.15;11.50;;;-4.10;30.50;;;;;;5091222;28;20432;-76
2024/01/10 06:08:55;;;;;;;18.70;11.77;;;-3.90;29.80;;;;;;5091149;28;20409;-74
2024/01/10 06:11:21;;;;;;;18.52;11.63;;;-3.80;29.30;;;;;;5090960;28;20393;-76
2024/01/10 06:13:46;;;;;;;20.00;11.88;;;-3.70;28.80;;;;;;5094118;28;20442;-75
2024/01/10 06:16:13;;;;;;;20.13;11.93;;;-3.70;28.40;;;;;;5096501;28;20398;-76
2024/01/10 06:18:39;;;;;;;19.90;11.97;;;-3.60;28.30;;;;;;5094750;28;20378;-77
2024/01/10 06:21:05;;;;;;;20.02;12.13;;;-3.60;28.10;;;;;;5094988;28;20401;-76
2024/01/10 06:23:30;;;;;;;21.50;12.20;;;-3.60;28.10;;;;;;5095479;28;20510;-75
2024/01/10 06:25:56;;;;;;;23.70;12.40;;;-3.60;28.00;;;;;;5094852;28;20390;-75
2024/01/10 06:28:23;;;;;;;19.52;11.60;;;-3.70;28.50;;;;;;5091513;28;20377;-74
2024/01/10 06:30:49;;;;;;;19.58;12.20;;;-3.70;28.60;;;;;;5090805;28;20403;-74
2024/01/10 06:33:15;;;;;;;21.10;12.45;;;-4.00;28.80;;;;;;5091283;28;20510;-75
2024/01/10 06:35:43;;;;;;;21.77;12.77;;;-4.10;29.40;;;;;;5092468;28;20821;-76
2024/01/10 06:38:09;;;;;;;44.40;25.95;;;-4.30;29.70;;;;;;5091256;28;20748;-76
2024/01/10 06:40:35;;;;;;;25.63;15.15;;;-4.00;29.40;;;;;;5091084;28;20432;-75
2024/01/10 06:43:00;;;;;;;21.00;13.10;;;-3.80;28.80;;;;;;5093243;28;20410;-74
2024/01/10 06:45:26;;;;;;;20.23;12.63;;;-3.70;28.80;;;;;;5094620;28;20501;-75
2024/01/10 06:47:52;;;;;;;24.27;13.50;;;-3.70;28.60;;;;;;5095666;28;20431;-76
2024/01/10 06:50:19;;;;;;;23.45;12.85;;;-3.80;29.00;;;;;;5094974;28;20382;-76
2024/01/10 06:52:45;;;;;;;19.55;12.10;;;-3.70;29.20;;;;;;5094673;28;20385;-75
2024/01/10 06:55:10;;;;;;;21.83;13.83;;;-3.80;28.90;;;;;;5094666;28;20949;-74
2024/01/10 06:57:36;;;;;;;21.63;13.60;;;-3.80;29.20;;;;;;5094455;28;20382;-74
2024/01/10 07:00:06;;;;;;;22.10;14.07;;;-3.80;29.60;;;;;;5094760;28;20370;-74
2024/01/10 07:02:32;;;;;;;24.50;14.30;;;-3.80;29.80;;;;;;5094666;28;20390;-73
2024/01/10 07:04:57;;;;;;;24.75;13.70;;;-3.90;30.30;;;;;;5094949;28;20453;-75
2024/01/10 07:07:23;;;;;;;23.10;14.23;;;-3.80;30.30;;;;;;5095480;28;20457;-75
2024/01/10 07:09:49;;;;;;;20.92;13.93;;;-3.80;30.40;;;;;;5097858;28;20465;-75
2024/01/10 07:12:14;;;;;;;24.17;14.27;;;-3.80;31.40;;;;;;5095786;28;20461;-74
2024/01/10 07:14:40;;;;;;;26.30;16.10;;;-3.80;30.60;;;;;;5095261;28;20374;-75
2024/01/10 07:17:06;;;;;;;25.23;14.15;;;-3.80;30.80;;;;;;5095286;28;20794;-74
2024/01/10 07:19:32;;;;;;;20.30;12.73;;;-3.70;30.40;;;;;;5096668;28;20391;-75
2024/01/10 07:21:57;;;;;;;22.20;13.37;;;-3.70;30.10;;;;;;5097702;28;20440;-75
2024/01/10 07:24:23;;;;;;;23.50;13.50;;;-3.70;30.00;;;;;;5098858;28;20425;-75
2024/01/10 07:26:48;;;;;;;21.25;13.40;;;-3.80;30.00;;;;;;5107870;28;20390;-74
2024/01/10 07:29:14;;;;;;;22.67;14.70;;;-3.70;30.10;;;;;;5109791;28;20406;-76
2024/01/10 07:31:40;;;;;;;22.33;14.20;;;-3.70;30.10;;;;;;5109552;28;20443;-76
2024/01/10 07:34:06;;;;;;;22.70;13.87;;;-3.70;29.90;;;;;;5109151;28;20374;-76
2024/01/10 07:36:33;;;;;;;23.85;14.80;;;-3.80;30.00;;;;;;5110099;28;20745;-75
2024/01/10 07:39:02;;;;;;;23.95;14.90;;;-3.80;30.10;;;;;;5113001;28;20397;-73
2024/01/10 07:41:27;;;;;;;22.23;14.00;;;-3.80;30.30;;;;;;5110134;28;20386;-75
2024/01/10 07:43:53;;;;;;;24.87;14.27;;;-3.70;29.90;;;;;;5105913;28;20503;-74
2024/01/10 07:46:18;;;;;;;24.27;13.70;;;-3.70;30.10;;;;;;5105976;28;20393;-74
2024/01/10 07:48:44;;;;;;;24.95;13.90;;;-3.60;29.40;;;;;;5103350;28;20374;-74
2024/01/10 07:51:10;;;;;;;24.27;13.80;;;-3.60;29.60;;;;;;5104569;28;20389;-75
2024/01/10 07:53:36;;;;;;;22.73;14.13;;;-3.60;30.10;;;;;;5101847;28;20382;-76
2024/01/10 07:56:05;;;;;;;23.67;14.00;;;-3.60;29.90;;;;;;5101910;28;20409;-76
2024/01/10 07:58:30;;;;;;;23.80;12.75;;;-3.60;29.80;;;;;;5102158;28;20390;-75
2024/01/10 08:00:56;;;;;;;24.45;14.00;;;-3.70;29.90;;;;;;5100726;28;20478;-76
2024/01/10 08:03:21;;;;;;;18.85;12.10;;;-3.60;29.90;;;;;;5100820;28;20386;-74
2024/01/10 08:05:47;;;;;;;22.23;13.30;;;-3.40;29.20;;;;;;5103210;28;20397;-73
2024/01/10 08:08:16;;;;;;;21.10;12.60;;;-3.30;28.50;;;;;;5101904;28;20718;-75
2024/01/10 08:10:42;;;;;;;23.58;14.05;;;-3.30;28.30;;;;;;5102020;28;20773;-76
2024/01/10 08:13:07;;;;;;;25.00;14.15;;;-3.30;28.60;;;;;;5097593;28;20394;-76
2024/01/10 08:15:34;;;;;;;23.60;13.37;;;-3.30;28.70;;;;;;5096469;28;20827;-77
2024/01/10 08:18:02;;;;;;;24.63;13.63;;;-3.20;28.00;;;;;;5095220;28;20395;-76
2024/01/10 08:20:28;;;;;;;20.98;13.05;;;-3.20;28.00;;;;;;5102415;22;20440;-70
2024/01/10 08:22:54;;;;;;;26.03;13.87;;;-3.10;28.00;;;;;;5075123;28;20871;-70
2024/01/10 08:25:19;;;;;;;23.88;13.77;;;-3.30;28.30;;;;;;5074828;28;20776;-70
2024/01/10 08:27:45;;;;;;;24.30;13.97;;;-3.20;28.50;;;;;;5057416;28;20380;-70
2024/01/10 08:30:11;;;;;;;22.90;13.37;;;-3.20;28.50;;;;;;5079135;28;20453;-70
2024/01/10 08:32:37;;;;;;;25.17;13.77;;;-3.10;28.40;;;;;;5078140;28;20747;-71
2024/01/10 08:35:07;;;;;;;25.15;13.50;;;-2.90;27.90;;;;;;5096084;28;20382;-70
2024/01/10 08:37:33;;;;;;;23.08;13.43;;;-2.90;28.00;;;;;;5097674;28;20888;-71
2024/01/10 08:40:00;;;;;;;24.23;13.00;;;-2.90;27.70;;;;;;5078804;28;20729;-71
2024/01/10 08:42:25;;;;;;;25.55;14.30;;;-2.80;27.00;;;;;;5096332;28;20473;-71
2024/01/10 08:44:51;;;;;;;22.00;13.80;;;-2.80;27.00;;;;;;5097040;28;20410;-72
2024/01/10 08:47:16;;;;;;;26.73;14.50;;;-3.00;27.40;;;;;;5096396;28;20386;-71
2024/01/10 08:49:42;;;;;;;27.08;13.50;;;-3.00;27.80;;;;;;5095975;28;20404;-70
2024/01/10 08:52:08;;;;;;;21.87;12.80;;;-2.70;27.10;;;;;;5096853;28;20924;-72
2024/01/10 08:54:33;;;;;;;23.05;13.70;;;-2.90;27.40;;;;;;5096408;28;20385;-73
2024/01/10 08:57:00;;;;;;;26.92;13.73;;;-2.80;27.20;;;;;;5095929;28;20504;-71
2024/01/10 08:59:27;;;;;;;24.05;12.65;;;-2.60;27.20;;;;;;5095873;28;20864;-69
2024/01/10 09:01:53;;;;;;;21.40;13.43;;;-2.30;26.00;;;;;;5092266;28;20386;-69
2024/01/10 09:04:19;;;;;;;26.45;13.60;;;-2.10;25.30;;;;;;5093214;28;20485;-70
2024/01/10 09:06:45;;;;;;;25.30;13.73;;;-2.20;25.30;;;;;;5091376;28;20465;-68
2024/01/10 09:09:12;;;;;;;22.80;12.97;;;-2.10;25.10;;;;;;5075688;28;20450;-70
2024/01/10 09:11:38;;;;;;;25.23;14.20;;;-2.20;25.10;;;;;;5092216;28;20385;-71
2024/01/10 09:14:04;;;;;;;27.48;13.68;;;-2.00;24.90;;;;;;5092108;28;20883;-69
2024/01/10 09:16:29;;;;;;;30.97;14.03;;;-1.90;25.20;;;;;;5092472;28;20386;-69
2024/01/10 09:18:57;;;;;;;23.27;13.47;;;-1.90;24.50;;;;;;5095332;28;20414;-70
2024/01/10 09:21:23;;;;;;;24.03;14.10;;;-2.10;25.20;;;;;;5094071;28;20469;-72
2024/01/10 09:23:50;;;;;;;26.65;14.40;;;-2.20;26.00;;;;;;5097826;28;20390;-71
2024/01/10 09:26:19;;;;;;;22.83;13.13;;;-2.00;25.60;;;;;;5079227;28;20888;-71
2024/01/10 09:28:45;;;;;;;25.85;14.20;;;-1.80;25.00;;;;;;5097679;28;20776;-70
2024/01/10 09:31:10;;;;;;;34.40;19.00;;;-1.80;25.10;;;;;;5097653;28;20413;-71
2024/01/10 09:33:36;;;;;;;34.55;18.45;;;-1.30;30.40;;;;;;5096153;28;20394;-71
2024/01/10 09:36:01;;;;;;;28.13;17.00;;;-0.70;29.90;;;;;;5095428;28;20402;-70
2024/01/10 09:38:27;;;;;;;28.37;15.70;;;-0.50;29.30;;;;;;5096119;28;20923;-70
2024/01/10 09:41:01;;;;;;;24.00;14.47;;;-0.60;29.30;;;;;;5094189;28;20398;-69
2024/01/10 09:43:27;;;;;;;25.45;14.43;;;-0.80;27.70;;;;;;5092706;28;20449;-69
2024/01/10 09:45:54;;;;;;;23.40;13.32;;;-1.00;26.00;;;;;;5092798;28;20850;-70
2024/01/10 09:48:20;;;;;;;22.77;13.60;;;-1.20;25.50;;;;;;5105585;28;20374;-70
2024/01/10 09:50:50;;;;;;;23.70;13.67;;;-1.20;24.70;;;;;;5110381;28;20390;-70
2024/01/10 09:53:23;;;;;;;23.90;14.23;;;-0.90;23.70;;;;;;5108551;28;20410;-71
2024/01/10 09:55:48;;;;;;;27.45;14.18;;;-0.80;22.90;;;;;;5101135;28;20406;-71
2024/01/10 09:58:14;;;;;;;26.90;14.60;;;-0.80;23.40;;;;;;5094254;28;20394;-70
2024/01/10 10:00:40;;;;;;;23.00;13.27;;;-0.60;23.60;;;;;;5094252;28;20852;-70
2024/01/10 10:03:12;;;;;;;25.35;14.27;;;-0.50;23.20;;;;;;5096714;28;20413;-70
2024/01/10 10:05:37;;;;;;;26.75;15.27;;;-0.60;22.10;;;;;;5095931;28;20821;-69
2024/01/10 10:08:06;;;;;;;29.40;14.97;;;-0.60;22.70;;;;;;5095785;28;20389;-70
2024/01/10 10:10:32;;;;;;;27.15;14.60;;;-0.60;22.60;;;;;;5102678;28;20744;-71
2024/01/10 10:12:57;;;;;;;24.70;13.00;;;-0.60;22.30;;;;;;5103994;28;20417;-71
2024/01/10 10:15:26;;;;;;;25.73;13.87;;;-0.70;22.50;;;;;;5103747;28;20464;-70
2024/01/10 10:17:53;;;;;;;27.50;14.30;;;-0.40;21.90;;;;;;5106102;28;20472;-70
2024/01/10 10:20:24;;;;;;;25.95;14.27;;;-0.30;21.50;;;;;;5098662;28;20782;-70
2024/01/10 10:23:03;;;;;;;23.02;13.40;;;-0.30;21.30;;;;;;5093154;28;20907;-70
2024/01/10 10:25:43;;;;;;;27.15;14.18;;;-0.50;21.90;;;;;;5097609;28;20852;-70
2024/01/10 10:28:09;;;;;;;23.52;13.52;;;-0.20;21.90;;;;;;5106979;28;20382;-70
2024/01/10 10:30:35;;;;;;;23.20;13.80;;;0.00;21.00;;;;;;5102095;28;20465;-70
2024/01/10 10:33:05;;;;;;;25.38;13.77;;;0.00;20.80;;;;;;5094340;28;20378;-70
2024/01/10 10:35:32;;;;;;;24.42;14.30;;;0.00;21.20;;;;;;5094029;28;20874;-69
2024/01/10 10:37:58;;;;;;;26.93;14.60;;;0.30;20.50;;;;;;5093971;28;20378;-70
2024/01/10 10:40:24;;;;;;;31.30;15.65;;;0.20;20.70;;;;;;5093733;28;20817;-69
2024/01/10 10:42:55;;;;;;;32.43;15.07;;;0.00;21.40;;;;;;5093821;28;20386;-70
2024/01/10 10:45:25;;;;;;;25.13;13.60;;;0.00;20.90;;;;;;5093711;28;20481;-70
2024/01/10 10:47:59;;;;;;;27.40;14.20;;;0.10;21.50;;;;;;5093358;28;20860;-71
2024/01/10 10:50:29;;;;;;;24.20;14.15;;;0.30;20.80;;;;;;5093158;28;20427;-70
2024/01/10 10:52:55;;;;;;;28.08;14.05;;;0.20;20.60;;;;;;5093698;28;20744;-71
2024/01/10 10:55:23;;;;;;;22.50;13.15;;;0.20;21.10;;;;;;5093283;28;20390;-70
2024/01/10 10:57:49;;;;;;;26.17;13.98;;;0.20;20.30;;;;;;5093356;28;20378;-71
2024/01/10 11:00:19;;;;;;;27.20;14.30;;;0.20;20.70;;;;;;5093786;28;20384;-70
2024/01/10 11:02:46;;;;;;;27.15;14.35;;;0.40;20.60;;;;;;5093875;28;20374;-69
2024/01/10 11:05:12;;;;;;;22.13;12.90;;;0.80;19.40;;;;;;5093722;28;20382;-70
2024/01/10 11:07:44;;;;;;;25.02;13.85;;;0.70;19.60;;;;;;5093479;28;20459;-70
2024/01/10 11:10:19;;;;;;;24.88;13.35;;;0.60;19.70;;;;;;5094262;28;20816;-70
2024/01/10 11:12:59;;;;;;;24.10;13.77;;;0.60;19.80;;;;;;5093924;28;20961;-71
2024/01/10 11:15:53;;;;;;;27.70;14.57;;;0.60;19.70;;;;;;5093674;28;20397;-71
2024/01/10 11:18:45;;;;;;;26.45;13.85;;;1.10;18.50;;;;;;5095428;28;20379;-70
2024/01/10 11:21:25;;;;;;;26.75;14.30;;;1.10;18.40;;;;;;5097478;28;20393;-69
2024/01/10 11:23:56;;;;;;;24.05;13.73;;;1.00;18.90;;;;;;5094976;28;20378;-71
2024/01/10 11:26:21;;;;;;;25.65;13.95;;;0.90;18.70;;;;;;5093583;28;20397;-70
2024/01/10 11:28:48;;;;;;;28.07;14.53;;;0.80;18.60;;;;;;5099903;28;20481;-69
2024/01/10 11:31:18;;;;;;;26.20;13.52;;;0.80;18.60;;;;;;5099971;28;20412;-70
2024/01/10 11:33:44;;;;;;;23.83;13.00;;;0.80;18.80;;;;;;5099437;28;20382;-69
2024/01/10 11:36:13;;;;;;;31.00;14.38;;;0.80;19.10;;;;;;5093352;28;20451;-72
2024/01/10 11:38:44;;;;;;;29.95;13.75;;;1.30;18.40;;;;;;5094233;28;20493;-71
2024/01/10 11:41:19;;;;;;;24.75;13.75;;;1.50;17.40;;;;;;5093059;28;21061;-70
2024/01/10 11:43:45;;;;;;;26.67;13.98;;;1.60;17.20;;;;;;5093146;28;20462;-70
2024/01/10 11:46:12;;;;;;;26.97;14.03;;;1.70;17.10;;;;;;5092778;28;20410;-69
2024/01/10 11:48:38;;;;;;;26.77;14.25;;;1.60;16.60;;;;;;5092467;28;20796;-70
2024/01/10 11:51:04;;;;;;;28.38;13.57;;;1.60;16.60;;;;;;5092356;28;20385;-71
2024/01/10 11:53:46;;;;;;;28.00;14.10;;;1.70;16.50;;;;;;5092498;28;20382;-70
2024/01/10 11:56:15;;;;;;;24.13;13.93;;;1.60;16.80;;;;;;5092749;28;20394;-72
2024/01/10 11:59:15;;;;;;;22.20;12.83;;;1.70;17.50;;;;;;5092775;28;20904;-71
2024/01/10 12:01:42;;;;;;;20.83;12.48;;;1.70;17.20;;;;;;5048948;28;20394;-70
2024/01/10 12:04:09;;;;;;;27.98;14.07;;;1.60;17.30;;;;;;5092426;28;20378;-69
2024/01/10 12:06:36;;;;;;;27.45;13.30;;;1.90;16.60;;;;;;5091972;28;20386;-71
2024/01/10 12:09:08;;;;;;;26.58;12.55;;;2.10;15.60;;;;;;5092396;28;20386;-69
2024/01/10 12:11:39;;;;;;;26.92;12.77;;;2.10;15.40;;;;;;5102704;28;20459;-72
2024/01/10 12:14:05;;;;;;;31.45;16.05;;;2.10;15.30;;;;;;5104145;28;20473;-70
2024/01/10 12:16:32;;;;;;;22.90;12.77;;;2.20;20.00;;;;;;5094398;28;20469;-70
2024/01/10 12:18:58;;;;;;;22.00;12.95;;;1.90;17.90;;;;;;5091540;28;20941;-71
2024/01/10 12:21:23;;;;;;;23.25;13.52;;;1.60;17.00;;;;;;5093014;28;20386;-71
2024/01/10 12:23:51;;;;;;;25.00;12.00;;;1.50;16.70;;;;;;5097263;28;20390;-73
2024/01/10 12:26:17;;;;;;;21.65;11.60;;;1.40;16.60;;;;;;5096807;28;20481;-71
2024/01/10 12:28:54;;;;;;;23.95;13.50;;;1.20;16.90;;;;;;5097259;28;20390;-71